createdAt,value
2018-10-02T00:00:30.746Z,99.90
2018-10-02T00:03:01.062Z,99.90
2018-10-02T00:05:31.309Z,99.90
2018-10-02T00:08:01.681Z,99.90
2018-10-02T00:10:32.068Z,99.90
2018-10-02T00:13:07.590Z,99.90
2018-10-02T00:15:37.871Z,99.90
2018-10-02T00:18:08.190Z,99.90
2018-10-02T00:20:38.488Z,99.90
2018-10-02T00:23:08.806Z,99.90
2018-10-02T00:25:39.328Z,99.90
2018-10-02T00:28:09.640Z,99.90
2018-10-02T00:30:40.532Z,99.90
2018-10-02T00:33:10.823Z,99.90
2018-10-02T00:35:41.689Z,99.90
2018-10-02T00:38:11.965Z,99.90
2018-10-02T00:40:42.282Z,99.90
2018-10-02T00:43:12.557Z,99.90
2018-10-02T00:45:42.884Z,99.90
2018-10-02T00:48:13.189Z,99.90
2018-10-02T00:50:43.520Z,99.90
2018-10-02T00:53:13.832Z,99.90
2018-10-02T00:55:44.400Z,99.90
2018-10-02T00:58:14.704Z,99.90
2018-10-02T01:00:45.751Z,99.90
2018-10-02T01:03:16.102Z,99.90
2018-10-02T01:05:48.033Z,99.90
2018-10-02T01:08:18.334Z,99.90
2018-10-02T01:10:49.388Z,99.90
2018-10-02T01:13:19.731Z,99.90
2018-10-02T01:15:50.130Z,99.90
2018-10-02T01:18:20.446Z,99.90
2018-10-02T01:20:50.738Z,99.90
2018-10-02T01:23:21.060Z,99.90
2018-10-02T01:25:51.325Z,99.90
2018-10-02T01:28:21.667Z,99.90
2018-10-02T01:30:51.956Z,99.90
2018-10-02T01:33:22.307Z,99.90
2018-10-02T01:35:52.606Z,99.90
2018-10-02T01:38:22.885Z,99.90
2018-10-02T01:40:53.268Z,99.90
2018-10-02T01:43:23.538Z,99.90
2018-10-02T01:45:53.837Z,99.90
2018-10-02T01:48:24.092Z,99.90
2018-10-02T01:50:54.405Z,99.90
2018-10-02T01:53:24.864Z,99.90
2018-10-02T01:55:55.156Z,99.90
2018-10-02T01:58:25.428Z,99.90
2018-10-02T02:00:55.752Z,99.90
2018-10-02T02:03:25.991Z,99.90
2018-10-02T02:05:56.280Z,99.90
2018-10-02T02:08:26.672Z,99.90
2018-10-02T02:10:56.946Z,99.90
2018-10-02T02:13:27.269Z,99.90
2018-10-02T02:15:57.536Z,99.90
2018-10-02T02:18:27.845Z,99.90
2018-10-02T02:20:58.190Z,99.90
2018-10-02T02:23:28.478Z,99.90
2018-10-02T02:25:58.768Z,99.90
2018-10-02T02:28:29.087Z,99.90
2018-10-02T02:30:59.422Z,99.90
2018-10-02T02:33:29.685Z,99.90
2018-10-02T02:36:00.012Z,99.90
2018-10-02T02:38:30.321Z,99.90
2018-10-02T02:41:00.618Z,99.90
2018-10-02T02:43:30.947Z,99.90
2018-10-02T02:46:01.313Z,99.90
2018-10-02T02:48:36.659Z,99.90
2018-10-02T02:51:12.193Z,99.90
2018-10-02T02:53:42.548Z,99.90
2018-10-02T02:56:12.866Z,99.90
2018-10-02T02:58:43.157Z,99.90
2018-10-02T03:01:13.462Z,99.90
2018-10-02T03:03:43.785Z,99.90
2018-10-02T03:06:14.128Z,99.90
2018-10-02T03:08:44.628Z,99.90
2018-10-02T03:11:15.361Z,99.90
2018-10-02T03:13:45.734Z,99.90
2018-10-02T03:16:16.040Z,99.90
2018-10-02T03:18:46.495Z,99.90
2018-10-02T03:21:16.878Z,99.90
2018-10-02T03:23:47.219Z,99.90
2018-10-02T03:26:17.497Z,99.90
2018-10-02T03:28:47.887Z,99.90
2018-10-02T03:31:18.185Z,99.90
2018-10-02T03:33:48.549Z,99.90
2018-10-02T03:36:18.973Z,99.90
2018-10-02T03:38:49.297Z,99.90
2018-10-02T03:41:19.601Z,99.90
2018-10-02T03:43:49.860Z,99.90
2018-10-02T03:46:20.421Z,99.90
2018-10-02T03:48:50.741Z,99.90
2018-10-02T03:51:21.128Z,99.90
2018-10-02T03:53:51.409Z,99.90
2018-10-02T03:56:21.736Z,99.90
2018-10-02T03:58:52.071Z,99.90
2018-10-02T04:01:22.349Z,99.90
2018-10-02T04:03:52.690Z,99.90
2018-10-02T04:06:24.277Z,99.90
2018-10-02T04:08:54.669Z,99.90
2018-10-02T04:11:24.976Z,99.90
2018-10-02T04:13:55.299Z,99.90
2018-10-02T04:16:25.635Z,99.90
2018-10-02T04:18:55.937Z,99.90
2018-10-02T04:21:30.506Z,99.90
2018-10-02T04:24:00.812Z,99.90
2018-10-02T04:26:31.179Z,99.90
2018-10-02T04:29:01.954Z,99.90
2018-10-02T04:31:33.561Z,99.90
2018-10-02T04:34:04.000Z,99.90
2018-10-02T04:36:34.301Z,99.90
2018-10-02T04:39:06.310Z,99.90
2018-10-02T04:41:36.698Z,99.90
2018-10-02T04:44:07.064Z,99.90
2018-10-02T04:46:37.431Z,99.90
2018-10-02T04:49:07.739Z,99.90
2018-10-02T04:51:38.041Z,99.90
2018-10-02T04:54:08.369Z,99.90
2018-10-02T04:56:38.851Z,99.90
2018-10-02T04:59:09.135Z,99.90
2018-10-02T05:01:39.459Z,99.90
2018-10-02T05:04:09.782Z,99.90
2018-10-02T05:06:40.635Z,99.90
2018-10-02T05:09:11.561Z,99.90
2018-10-02T05:11:41.852Z,99.90
2018-10-02T05:14:12.220Z,99.90
2018-10-02T05:16:42.744Z,99.90
2018-10-02T05:19:13.025Z,99.90
2018-10-02T05:21:43.464Z,99.90
2018-10-02T05:24:13.799Z,99.90
2018-10-02T05:26:44.112Z,99.90
2018-10-02T05:29:14.444Z,99.90
2018-10-02T05:31:44.824Z,99.90
2018-10-02T05:34:15.135Z,99.90
2018-10-02T05:36:45.484Z,99.90
2018-10-02T05:39:15.820Z,99.90
2018-10-02T05:41:46.206Z,99.90
2018-10-02T05:44:16.512Z,99.80
2018-10-02T05:46:46.813Z,99.00
2018-10-02T05:49:17.132Z,97.20
2018-10-02T05:51:47.479Z,97.50
2018-10-02T05:54:17.815Z,98.10
2018-10-02T05:56:48.109Z,99.10
2018-10-02T05:59:18.459Z,98.40
2018-10-02T06:01:49.491Z,98.10
2018-10-02T06:04:20.043Z,98.50
2018-10-02T06:06:50.380Z,98.60
2018-10-02T06:09:20.724Z,99.30
2018-10-02T06:11:51.036Z,99.60
2018-10-02T06:14:21.384Z,99.70
2018-10-02T06:16:51.768Z,99.70
2018-10-02T06:19:22.581Z,99.80
2018-10-02T06:21:52.915Z,99.80
2018-10-02T06:24:23.281Z,99.70
2018-10-02T06:26:53.567Z,99.50
2018-10-02T06:29:23.856Z,99.50
2018-10-02T06:31:54.181Z,99.20
2018-10-02T06:34:24.543Z,98.90
2018-10-02T06:36:58.947Z,98.30
2018-10-02T06:39:30.859Z,98.50
2018-10-02T06:42:02.336Z,98.50
2018-10-02T06:44:33.236Z,98.60
2018-10-02T06:47:03.864Z,98.80
2018-10-02T06:49:34.391Z,98.50
2018-10-02T06:52:05.064Z,98.30
2018-10-02T06:54:35.398Z,98.20
2018-10-02T06:57:06.485Z,98.00
2018-10-02T06:59:36.593Z,98.40
2018-10-02T07:02:06.889Z,98.70
2018-10-02T07:04:37.559Z,98.90
2018-10-02T07:07:07.958Z,98.80
2018-10-02T07:09:38.625Z,98.80
2018-10-02T07:12:08.969Z,98.80
2018-10-02T07:14:40.174Z,98.60
2018-10-02T07:17:10.398Z,98.60
2018-10-02T07:19:40.706Z,98.40
2018-10-02T07:22:11.043Z,98.20
2018-10-02T07:24:41.527Z,98.00
2018-10-02T07:27:12.186Z,97.80
2018-10-02T07:29:42.366Z,97.80
2018-10-02T07:32:12.689Z,98.00
2018-10-02T07:34:43.001Z,98.30
2018-10-02T07:37:13.451Z,98.30
2018-10-02T07:39:43.745Z,97.70
2018-10-02T07:42:14.525Z,97.70
2018-10-02T07:44:44.913Z,97.90
2018-10-02T07:47:15.247Z,98.10
2018-10-02T07:49:45.827Z,98.30
2018-10-02T07:52:16.231Z,98.20
2018-10-02T07:54:46.693Z,97.80
2018-10-02T07:57:17.084Z,97.40
2018-10-02T07:59:47.488Z,96.10
2018-10-02T08:02:17.851Z,96.40
2018-10-02T08:04:48.237Z,96.70
2018-10-02T08:07:18.884Z,95.20
2018-10-02T08:09:49.220Z,95.60
2018-10-02T08:12:19.715Z,96.40
2018-10-02T08:14:49.893Z,95.50
2018-10-02T08:17:20.240Z,95.30
2018-10-02T08:19:50.618Z,94.60
2018-10-02T08:22:22.377Z,93.80
2018-10-02T08:24:52.687Z,93.60
2018-10-02T08:27:23.106Z,92.70
2018-10-02T08:29:53.477Z,92.80
2018-10-02T08:32:23.889Z,93.30
2018-10-02T08:34:54.160Z,92.20
2018-10-02T08:37:24.483Z,92.40
2018-10-02T08:39:54.924Z,92.60
2018-10-02T08:42:25.336Z,92.40
2018-10-02T08:44:55.672Z,93.00
2018-10-02T08:47:27.489Z,93.50
2018-10-02T08:49:58.031Z,93.40
2018-10-02T08:52:28.420Z,92.20
2018-10-02T08:54:59.110Z,92.50
2018-10-02T08:57:29.687Z,92.20
2018-10-02T09:00:00.048Z,92.50
2018-10-02T09:02:30.399Z,92.70
2018-10-02T09:05:00.752Z,91.80
2018-10-02T09:07:31.090Z,92.00
2018-10-02T09:10:01.439Z,92.70
2018-10-02T09:12:31.871Z,92.00
2018-10-02T09:15:02.160Z,92.30
2018-10-02T09:17:32.505Z,91.70
2018-10-02T09:20:02.910Z,92.30
2018-10-02T09:22:33.331Z,91.60
2018-10-02T09:25:03.805Z,92.10
2018-10-02T09:27:34.039Z,91.80
2018-10-02T09:30:09.528Z,92.20
2018-10-02T09:32:45.006Z,92.50
2018-10-02T09:35:23.802Z,92.00
2018-10-02T09:37:59.489Z,91.50
2018-10-02T09:40:35.184Z,91.50
2018-10-02T09:43:11.479Z,90.80
2018-10-02T09:45:41.912Z,91.10
2018-10-02T09:48:14.048Z,90.70
2018-10-02T09:50:44.406Z,91.10
2018-10-02T09:53:14.798Z,91.30
2018-10-02T09:55:45.197Z,91.20
2018-10-02T09:58:15.576Z,91.10
2018-10-02T10:00:50.960Z,90.90
2018-10-02T10:03:21.282Z,90.50
2018-10-02T10:05:51.640Z,90.80
2018-10-02T10:08:22.040Z,90.70
2018-10-02T10:10:52.365Z,90.90
2018-10-02T10:13:22.740Z,91.00
2018-10-02T10:15:53.137Z,90.30
2018-10-02T10:18:23.465Z,90.70
2018-10-02T10:20:53.814Z,90.40
2018-10-02T10:23:24.106Z,89.90
2018-10-02T10:25:54.458Z,90.00
2018-10-02T10:28:24.801Z,90.20
2018-10-02T10:30:55.093Z,90.50
2018-10-02T10:33:25.450Z,90.80
2018-10-02T10:35:55.786Z,90.60
2018-10-02T10:38:26.145Z,91.10
2018-10-02T10:40:56.558Z,91.50
2018-10-02T10:43:26.837Z,90.80
2018-10-02T10:45:57.186Z,90.80
2018-10-02T10:48:27.565Z,88.70
2018-10-02T10:50:57.877Z,89.00
2018-10-02T10:53:28.281Z,89.90
2018-10-02T10:55:58.706Z,90.00
2018-10-02T10:58:29.145Z,90.20
2018-10-02T11:00:59.463Z,89.80
2018-10-02T11:03:29.771Z,89.30
2018-10-02T11:06:00.134Z,88.60
2018-10-02T11:08:30.465Z,87.80
2018-10-02T11:11:00.736Z,87.60
2018-10-02T11:13:31.052Z,88.80
2018-10-02T11:16:01.338Z,89.00
2018-10-02T11:18:31.705Z,87.40
2018-10-02T11:21:02.152Z,87.60
2018-10-02T11:23:32.492Z,87.70
2018-10-02T11:26:02.888Z,86.80
2018-10-02T11:28:33.350Z,87.70
2018-10-02T11:31:03.642Z,84.50
2018-10-02T11:33:33.950Z,84.30
2018-10-02T11:36:04.300Z,82.30
2018-10-02T11:38:34.707Z,84.10
2018-10-02T11:41:05.070Z,83.30
2018-10-02T11:43:35.451Z,84.00
2018-10-02T11:46:05.814Z,84.50
2018-10-02T11:48:36.191Z,87.20
2018-10-02T11:51:06.591Z,86.50
2018-10-02T11:53:36.957Z,85.90
2018-10-02T11:56:07.421Z,85.50
2018-10-02T11:58:37.772Z,82.30
2018-10-02T12:01:08.344Z,82.50
2018-10-02T12:03:38.561Z,82.20
2018-10-02T12:06:09.246Z,84.20
2018-10-02T12:08:39.570Z,82.90
2018-10-02T12:11:10.197Z,84.30
2018-10-02T12:13:40.614Z,85.90
2018-10-02T12:16:10.845Z,85.30
2018-10-02T12:18:41.168Z,86.70
2018-10-02T12:21:11.596Z,86.10
2018-10-02T12:23:42.001Z,86.20
2018-10-02T12:26:12.299Z,87.90
2018-10-02T12:28:42.692Z,86.70
2018-10-02T12:31:13.423Z,87.00
2018-10-02T12:33:44.349Z,86.80
2018-10-02T12:36:14.642Z,88.00
2018-10-02T12:38:45.091Z,87.50
2018-10-02T12:41:15.367Z,88.00
2018-10-02T12:43:45.747Z,87.40
2018-10-02T12:46:16.091Z,87.00
2018-10-02T12:48:47.137Z,88.10
2018-10-02T12:51:17.881Z,89.60
2018-10-02T12:53:48.217Z,90.20
2018-10-02T12:56:18.552Z,89.20
2018-10-02T12:58:48.979Z,87.30
2018-10-02T13:01:19.316Z,87.70
2018-10-02T13:03:49.666Z,88.10
2018-10-02T13:06:19.963Z,85.80
2018-10-02T13:08:50.255Z,85.90
2018-10-02T13:11:20.638Z,86.20
2018-10-02T13:13:51.192Z,85.50
2018-10-02T13:16:21.589Z,83.00
2018-10-02T13:18:51.931Z,83.40
2018-10-02T13:21:23.065Z,83.30
2018-10-02T13:23:53.378Z,82.00
2018-10-02T13:26:23.731Z,80.80
2018-10-02T13:28:54.047Z,81.10
2018-10-02T13:31:24.388Z,82.30
2018-10-02T13:33:54.683Z,79.40
2018-10-02T13:36:25.962Z,80.20
2018-10-02T13:42:47.524Z,83.10
2018-10-02T13:45:17.745Z,83.60
2018-10-02T13:47:48.058Z,83.50
2018-10-02T13:50:18.313Z,81.70
2018-10-02T13:52:48.650Z,82.90
2018-10-02T13:55:19.012Z,82.70
2018-10-02T13:57:49.477Z,83.40
2018-10-02T14:00:19.867Z,83.50
2018-10-02T14:02:50.288Z,81.90
2018-10-02T14:05:20.555Z,81.10
2018-10-02T14:07:50.824Z,82.80
2018-10-02T14:10:21.142Z,82.40
2018-10-02T14:12:51.405Z,81.90
2018-10-02T14:15:21.701Z,81.50
2018-10-02T14:17:51.949Z,79.80
2018-10-02T14:20:22.249Z,80.80
2018-10-02T14:22:52.582Z,78.00
2018-10-02T14:25:22.927Z,78.60
2018-10-02T14:27:53.242Z,79.50
2018-10-02T14:30:23.575Z,78.60
2018-10-02T14:32:53.870Z,78.10
2018-10-02T14:35:24.260Z,76.40
2018-10-02T14:37:54.664Z,77.10
2018-10-02T14:40:25.066Z,77.20
2018-10-02T14:42:55.396Z,76.90
2018-10-02T14:45:25.734Z,75.50
2018-10-02T14:47:56.066Z,75.70
2018-10-02T14:50:26.342Z,75.50
2018-10-02T14:52:56.651Z,73.90
2018-10-02T14:55:26.904Z,75.70
2018-10-02T14:57:57.236Z,76.00
2018-10-02T15:00:27.567Z,74.50
2018-10-02T15:02:57.882Z,74.00
2018-10-02T15:05:28.401Z,72.60
2018-10-02T15:07:58.742Z,72.80
2018-10-02T15:10:29.091Z,73.10
2018-10-02T15:12:59.440Z,73.70
2018-10-02T15:15:29.766Z,71.70
2018-10-02T15:18:00.154Z,67.70
2018-10-02T15:20:30.883Z,67.70
2018-10-02T15:23:01.230Z,69.30
2018-10-02T15:25:31.541Z,68.00
2018-10-02T15:28:01.916Z,67.10
2018-10-02T15:30:32.250Z,65.80
2018-10-02T15:33:02.665Z,67.00
2018-10-02T15:35:33.074Z,66.50
2018-10-02T15:38:03.441Z,66.70
2018-10-02T15:40:34.220Z,66.10
2018-10-02T15:43:04.993Z,66.80
2018-10-02T15:45:35.684Z,67.70
2018-10-02T15:48:05.965Z,70.70
2018-10-02T15:50:36.347Z,70.50
2018-10-02T15:53:06.681Z,70.60
2018-10-02T15:55:36.967Z,70.60
2018-10-02T15:58:07.397Z,71.80
2018-10-02T16:00:37.736Z,73.60
2018-10-02T16:03:08.174Z,72.60
2018-10-02T16:05:38.533Z,72.90
2018-10-02T16:08:08.833Z,72.70
2018-10-02T16:10:39.223Z,73.60
2018-10-02T16:13:09.495Z,73.80
2018-10-02T16:15:39.734Z,74.10
2018-10-02T16:18:10.116Z,75.00
2018-10-02T16:20:40.623Z,74.80
2018-10-02T16:23:11.081Z,75.30
2018-10-02T16:25:41.494Z,75.20
2018-10-02T16:28:11.837Z,75.60
2018-10-02T16:30:42.212Z,76.50
2018-10-02T16:33:12.466Z,77.40
2018-10-02T16:35:42.832Z,77.60
2018-10-02T16:38:13.164Z,77.90
2018-10-02T16:40:43.635Z,79.50
2018-10-02T16:43:13.995Z,77.30
2018-10-02T16:45:44.343Z,77.30
2018-10-02T16:48:14.787Z,77.30
2018-10-02T16:50:45.191Z,77.40
2018-10-02T16:53:15.551Z,78.80
2018-10-02T16:55:46.036Z,81.40
2018-10-02T16:58:16.457Z,82.60
2018-10-02T17:00:46.848Z,83.50
2018-10-02T17:03:17.194Z,84.60
2018-10-02T17:05:47.693Z,85.60
2018-10-02T17:08:18.080Z,86.10
2018-10-02T17:10:48.580Z,83.00
2018-10-02T17:13:18.882Z,83.70
2018-10-02T17:15:49.821Z,85.00
2018-10-02T17:18:20.299Z,86.70
2018-10-02T17:20:50.841Z,87.90
2018-10-02T17:23:21.243Z,88.90
2018-10-02T17:25:51.726Z,89.90
2018-10-02T17:28:22.106Z,90.20
2018-10-02T17:30:52.652Z,90.40
2018-10-02T17:33:23.052Z,90.60
2018-10-02T17:35:53.673Z,90.60
2018-10-02T17:38:24.319Z,90.90
2018-10-02T17:40:54.814Z,91.20
2018-10-02T17:43:25.667Z,91.50
2018-10-02T17:45:56.131Z,91.70
2018-10-02T17:48:26.570Z,91.90
2018-10-02T17:50:57.088Z,92.00
2018-10-02T17:53:27.580Z,92.00
2018-10-02T17:55:58.127Z,92.00
2018-10-02T17:58:28.663Z,92.10
2018-10-02T18:00:59.304Z,92.30
2018-10-02T18:03:29.936Z,92.30
2018-10-02T18:06:00.402Z,92.30
2018-10-02T18:08:30.972Z,92.40
2018-10-02T18:11:01.853Z,92.50
2018-10-02T18:13:32.489Z,92.50
2018-10-02T18:16:03.022Z,92.80
2018-10-02T18:18:33.851Z,93.00
2018-10-02T18:21:04.379Z,93.00
2018-10-02T18:23:34.897Z,93.00
2018-10-02T18:26:05.723Z,93.00
2018-10-02T18:28:36.261Z,93.10
2018-10-02T18:31:06.884Z,93.20
2018-10-02T18:33:37.417Z,93.20
2018-10-02T18:36:08.032Z,93.20
2018-10-02T18:38:38.872Z,93.50
2018-10-02T18:41:09.488Z,94.10
2018-10-02T18:43:40.891Z,94.30
2018-10-02T18:46:11.352Z,94.10
2018-10-02T18:48:41.961Z,94.00
2018-10-02T18:51:12.508Z,93.90
2018-10-02T18:53:43.075Z,93.90
2018-10-02T18:56:13.864Z,93.90
2018-10-02T18:58:44.346Z,93.80
2018-10-02T19:01:15.049Z,93.80
2018-10-02T19:03:45.607Z,93.60
2018-10-02T19:06:16.145Z,93.60
2018-10-02T19:08:51.851Z,93.80
2018-10-02T19:11:27.528Z,93.70
2018-10-02T19:13:58.177Z,93.70
2018-10-02T19:16:32.209Z,93.70
2018-10-02T19:19:02.799Z,93.70
2018-10-02T19:21:33.420Z,93.50
2018-10-02T19:24:04.034Z,93.50
2018-10-02T19:26:35.221Z,93.60
2018-10-02T19:29:06.309Z,93.70
2018-10-02T19:31:42.345Z,93.50
2018-10-02T19:34:13.074Z,93.20
2018-10-02T19:36:44.002Z,93.40
2018-10-02T19:39:32.449Z,93.50
2018-10-02T19:42:03.117Z,94.00
2018-10-02T19:44:33.661Z,93.90
2018-10-02T19:47:04.873Z,94.00
2018-10-02T19:49:36.231Z,94.10
2018-10-02T19:52:11.094Z,94.20
2018-10-02T19:54:42.065Z,94.10
2018-10-02T19:57:18.066Z,94.20
2018-10-02T19:59:48.829Z,94.50
2018-10-02T20:02:19.401Z,94.70
2018-10-02T20:04:49.949Z,94.70
2018-10-02T20:07:20.522Z,94.80
2018-10-02T20:09:50.979Z,94.70
2018-10-02T20:12:21.466Z,94.50
2018-10-02T20:14:52.040Z,94.70
2018-10-02T20:17:22.491Z,94.70
2018-10-02T20:19:53.077Z,94.60
2018-10-02T20:22:23.611Z,94.70
2018-10-02T20:24:54.227Z,94.40
2018-10-02T20:27:24.871Z,94.30
2018-10-02T20:29:55.313Z,93.90
2018-10-02T20:32:25.902Z,94.00
2018-10-02T20:34:56.474Z,94.20
2018-10-02T20:37:26.996Z,94.30
2018-10-02T20:39:57.545Z,94.20
2018-10-02T20:42:28.966Z,94.20
2018-10-02T20:44:59.429Z,94.50
2018-10-02T20:47:29.994Z,94.40
2018-10-02T20:50:00.431Z,94.30
2018-10-02T20:52:31.494Z,94.30
2018-10-02T20:55:01.916Z,94.20
2018-10-02T20:57:32.352Z,94.20
2018-10-02T21:00:02.850Z,94.20
2018-10-02T21:02:33.431Z,94.70
2018-10-02T21:05:03.826Z,94.50
2018-10-02T21:07:34.210Z,94.50
2018-10-02T21:10:04.565Z,94.70
2018-10-02T21:12:34.946Z,94.70
2018-10-02T21:15:05.305Z,94.30
2018-10-02T21:17:35.657Z,94.40
2018-10-02T21:20:06.168Z,94.40
2018-10-02T21:22:36.519Z,94.50
2018-10-02T21:25:06.820Z,94.50
2018-10-02T21:27:37.213Z,94.30
2018-10-02T21:30:07.618Z,94.20
2018-10-02T21:32:37.982Z,94.30
2018-10-02T21:35:08.024Z,94.40
2018-10-02T21:37:38.480Z,94.60
2018-10-02T21:40:08.840Z,94.30
2018-10-02T21:42:39.157Z,94.30
2018-10-02T21:45:09.480Z,94.40
2018-10-02T21:47:39.849Z,94.50
2018-10-02T21:50:10.336Z,94.30
2018-10-02T21:52:40.637Z,94.20
2018-10-02T21:55:11.415Z,94.40
2018-10-02T21:57:41.729Z,94.40
2018-10-02T22:00:12.190Z,94.40
2018-10-02T22:02:42.536Z,94.40
2018-10-02T22:05:12.832Z,94.20
2018-10-02T22:07:43.310Z,94.30
2018-10-02T22:10:13.661Z,94.40
2018-10-02T22:12:44.222Z,94.60
2018-10-02T22:15:15.002Z,94.90
2018-10-02T22:17:45.244Z,95.30
2018-10-02T22:20:15.661Z,95.10
2018-10-02T22:22:46.024Z,95.20
2018-10-02T22:25:16.453Z,95.10
2018-10-02T22:27:46.796Z,95.10
2018-10-02T22:30:17.130Z,95.20
2018-10-02T22:32:47.444Z,95.20
2018-10-02T22:35:17.760Z,95.20
2018-10-02T22:37:48.569Z,95.20
2018-10-02T22:40:19.134Z,95.10
2018-10-02T22:42:50.454Z,95.10
2018-10-02T22:45:20.895Z,95.30
2018-10-02T22:47:51.398Z,95.30
2018-10-02T22:50:21.770Z,95.40
2018-10-02T22:52:52.192Z,95.50
2018-10-02T22:55:22.532Z,95.60
2018-10-02T22:57:53.303Z,95.60
2018-10-02T23:00:24.064Z,95.50
2018-10-02T23:02:54.368Z,95.50
2018-10-02T23:05:24.704Z,95.60
2018-10-02T23:07:56.315Z,95.60
2018-10-02T23:10:26.635Z,95.70
2018-10-02T23:12:57.017Z,95.70
2018-10-02T23:15:27.766Z,95.60
2018-10-02T23:17:58.045Z,95.60
2018-10-02T23:20:28.466Z,95.40
2018-10-02T23:22:58.793Z,95.30
2018-10-02T23:25:29.166Z,95.30
2018-10-02T23:27:59.482Z,95.50
2018-10-02T23:30:29.773Z,95.50
2018-10-02T23:33:00.118Z,95.50
2018-10-02T23:35:30.466Z,95.30
2018-10-02T23:38:00.789Z,95.40
2018-10-02T23:40:31.202Z,95.50
2018-10-02T23:43:01.580Z,95.60
2018-10-02T23:45:31.958Z,95.60
2018-10-02T23:48:02.368Z,95.60
2018-10-02T23:50:32.652Z,95.70
2018-10-02T23:53:03.080Z,95.50
2018-10-02T23:55:34.626Z,95.50
2018-10-02T23:58:04.993Z,95.70
